Time;durP1;ratioP1;P1;durP2;ratioP2;P2;SDS_P1;SDS_P2;PMS_P1;PMS_P2;Temp;Humidity;BMP_temperature;BMP_pressure;BME280_temperature;BME280_humidity;BME280_pressure;Samples;Min_cycle;Max_cycle;Signal;HPM_P1;HPM_P2
2020/09/26 00:01:30;;;;;;;1.10;1.00;;;;;;;20.47;65.46;98892.63;;;;-47
2020/09/26 00:04:29;;;;;;;0.99;0.99;;;;;;;20.47;65.49;98891.02;;;;-47
2020/09/26 00:07:29;;;;;;;1.34;1.15;;;;;;;20.47;65.52;98890.95;;;;-47
2020/09/26 00:10:29;;;;;;;1.02;1.01;;;;;;;20.47;65.48;98887.53;;;;-49
2020/09/26 00:13:29;;;;;;;1.03;0.96;;;;;;;20.46;65.50;98881.77;;;;-47
2020/09/26 00:16:30;;;;;;;1.13;1.09;;;;;;;20.46;65.46;98877.79;;;;-47
2020/09/26 00:19:30;;;;;;;1.08;1.01;;;;;;;20.45;65.50;98875.03;;;;-47
2020/09/26 00:22:29;;;;;;;1.05;0.93;;;;;;;20.44;65.51;98870.75;;;;-46
2020/09/26 00:25:30;;;;;;;1.25;1.11;;;;;;;20.44;65.49;98862.44;;;;-46
2020/09/26 00:28:29;;;;;;;1.19;1.10;;;;;;;20.43;65.48;98858.90;;;;-47
2020/09/26 00:31:30;;;;;;;0.99;0.93;;;;;;;20.44;65.47;98858.30;;;;-47
2020/09/26 00:34:29;;;;;;;1.05;1.02;;;;;;;20.43;65.47;98863.13;;;;-47
2020/09/26 00:37:30;;;;;;;1.20;1.05;;;;;;;20.43;65.46;98856.06;;;;-47
2020/09/26 00:40:30;;;;;;;1.15;1.04;;;;;;;20.42;65.54;98853.20;;;;-47
2020/09/26 00:43:29;;;;;;;1.15;1.11;;;;;;;20.42;65.48;98852.82;;;;-46
2020/09/26 00:46:29;;;;;;;1.04;1.03;;;;;;;20.41;65.49;98847.70;;;;-46
2020/09/26 00:49:29;;;;;;;1.20;1.10;;;;;;;20.40;65.47;98848.88;;;;-47
2020/09/26 00:52:29;;;;;;;0.97;0.97;;;;;;;20.40;65.50;98845.78;;;;-47
2020/09/26 00:55:29;;;;;;;1.00;1.00;;;;;;;20.39;65.49;98848.47;;;;-47
2020/09/26 00:58:30;;;;;;;1.19;1.03;;;;;;;20.40;65.48;98848.38;;;;-47
2020/09/26 01:01:30;;;;;;;1.47;0.93;;;;;;;20.39;65.46;98847.77;;;;-47
2020/09/26 01:04:29;;;;;;;0.99;0.99;;;;;;;20.39;65.43;98849.55;;;;-46
2020/09/26 01:07:29;;;;;;;1.06;0.99;;;;;;;20.38;65.50;98849.07;;;;-47
2020/09/26 01:10:30;;;;;;;1.15;1.08;;;;;;;20.38;65.48;98850.53;;;;-47
2020/09/26 01:13:29;;;;;;;0.92;0.92;;;;;;;20.37;65.50;98850.06;;;;-46
2020/09/26 01:16:29;;;;;;;0.90;0.90;;;;;;;20.38;65.46;98850.22;;;;-46
2020/09/26 01:19:30;;;;;;;0.96;0.96;;;;;;;20.37;65.46;98847.70;;;;-46
2020/09/26 01:22:30;;;;;;;1.06;1.00;;;;;;;20.36;65.48;98847.92;;;;-47
2020/09/26 01:25:29;;;;;;;1.03;0.98;;;;;;;20.36;65.47;98846.86;;;;-47
2020/09/26 01:28:29;;;;;;;1.77;1.00;;;;;;;20.36;65.49;98842.72;;;;-47
2020/09/26 01:31:30;;;;;;;1.01;0.91;;;;;;;20.35;65.50;98841.73;;;;-47
2020/09/26 01:34:29;;;;;;;0.99;0.99;;;;;;;20.36;65.46;98836.75;;;;-47
2020/09/26 01:37:30;;;;;;;0.97;0.96;;;;;;;20.34;65.49;98828.27;;;;-47
2020/09/26 01:40:30;;;;;;;1.10;1.00;;;;;;;20.35;65.43;98821.48;;;;-46
2020/09/26 01:43:30;;;;;;;0.97;0.90;;;;;;;20.34;65.46;98822.27;;;;-47
2020/09/26 01:46:29;;;;;;;1.10;1.09;;;;;;;20.34;65.47;98820.05;;;;-47
2020/09/26 01:49:29;;;;;;;1.02;1.02;;;;;;;20.33;65.41;98815.74;;;;-47
2020/09/26 01:52:29;;;;;;;0.99;0.93;;;;;;;20.34;65.41;98817.95;;;;-47
2020/09/26 01:55:29;;;;;;;0.90;0.90;;;;;;;20.34;65.44;98814.55;;;;-47
2020/09/26 01:58:29;;;;;;;1.15;1.10;;;;;;;20.33;65.43;98813.25;;;;-47
2020/09/26 02:01:30;;;;;;;1.30;1.08;;;;;;;20.33;65.41;98809.66;;;;-47
2020/09/26 02:04:30;;;;;;;0.90;0.90;;;;;;;20.32;65.41;98798.05;;;;-47
2020/09/26 02:07:30;;;;;;;0.95;0.95;;;;;;;20.33;65.39;98795.09;;;;-46
2020/09/26 02:10:29;;;;;;;1.17;1.10;;;;;;;20.31;65.37;98790.25;;;;-46
2020/09/26 02:13:29;;;;;;;1.03;1.00;;;;;;;20.31;65.36;98790.20;;;;-47
2020/09/26 02:16:29;;;;;;;0.90;0.90;;;;;;;20.31;65.39;98788.45;;;;-46
2020/09/26 02:19:29;;;;;;;1.16;1.06;;;;;;;20.31;65.37;98788.24;;;;-46
2020/09/26 02:22:30;;;;;;;1.03;1.01;;;;;;;20.31;65.36;98785.31;;;;-47
2020/09/26 02:25:30;;;;;;;1.06;1.00;;;;;;;20.30;65.37;98785.42;;;;-46
2020/09/26 02:28:29;;;;;;;1.14;0.93;;;;;;;20.30;65.39;98781.69;;;;-47
2020/09/26 02:31:29;;;;;;;1.19;1.10;;;;;;;20.29;65.42;98781.84;;;;-46
2020/09/26 02:34:29;;;;;;;0.90;0.90;;;;;;;20.29;65.36;98778.91;;;;-46
2020/09/26 02:37:30;;;;;;;1.04;1.01;;;;;;;20.28;65.37;98778.20;;;;-47
2020/09/26 02:40:29;;;;;;;1.09;1.00;;;;;;;20.29;65.38;98776.23;;;;-47
2020/09/26 02:43:29;;;;;;;1.00;1.00;;;;;;;20.28;65.40;98781.08;;;;-46
2020/09/26 02:46:29;;;;;;;0.95;0.90;;;;;;;20.28;65.41;98785.71;;;;-46
2020/09/26 02:49:29;;;;;;;1.00;1.00;;;;;;;20.28;65.35;98788.15;;;;-46
2020/09/26 02:52:29;;;;;;;0.95;0.95;;;;;;;20.27;65.40;98789.14;;;;-47
2020/09/26 02:55:29;;;;;;;1.00;1.00;;;;;;;20.27;65.43;98792.64;;;;-46
2020/09/26 02:58:30;;;;;;;1.83;1.13;;;;;;;20.26;65.39;98793.06;;;;-46
2020/09/26 03:01:30;;;;;;;0.85;0.85;;;;;;;20.26;65.41;98792.66;;;;-47
2020/09/26 03:04:29;;;;;;;1.19;1.10;;;;;;;20.26;65.37;98789.66;;;;-46
2020/09/26 03:07:29;;;;;;;1.07;0.97;;;;;;;20.27;65.34;98792.48;;;;-46
2020/09/26 03:10:30;;;;;;;1.16;1.06;;;;;;;20.27;65.32;98790.36;;;;-46
2020/09/26 03:13:30;;;;;;;1.10;1.00;;;;;;;20.26;65.37;98791.22;;;;-47
2020/09/26 03:16:30;;;;;;;0.86;0.86;;;;;;;20.26;65.32;98788.13;;;;-46
2020/09/26 03:19:30;;;;;;;1.03;1.00;;;;;;;20.25;65.30;98788.38;;;;-47
2020/09/26 03:22:30;;;;;;;1.02;1.02;;;;;;;20.26;65.31;98789.89;;;;-47
2020/09/26 03:25:30;;;;;;;0.90;0.90;;;;;;;20.24;65.33;98786.60;;;;-47
2020/09/26 03:28:30;;;;;;;1.00;1.00;;;;;;;20.25;65.34;98789.58;;;;-46
2020/09/26 03:31:29;;;;;;;0.99;0.99;;;;;;;20.25;65.36;98786.67;;;;-46
2020/09/26 03:34:30;;;;;;;1.11;1.05;;;;;;;20.23;65.37;98787.67;;;;-46
2020/09/26 03:37:30;;;;;;;0.99;0.99;;;;;;;20.23;65.36;98793.20;;;;-47
2020/09/26 03:40:29;;;;;;;0.94;0.94;;;;;;;20.23;65.33;98795.59;;;;-47
2020/09/26 03:43:29;;;;;;;1.05;0.94;;;;;;;20.23;65.34;98796.88;;;;-46
2020/09/26 03:46:29;;;;;;;0.88;0.88;;;;;;;20.23;65.33;98784.42;;;;-47
2020/09/26 03:49:29;;;;;;;1.03;1.03;;;;;;;20.23;65.36;98781.75;;;;-46
2020/09/26 03:52:29;;;;;;;0.90;0.90;;;;;;;20.22;65.32;98777.86;;;;-47
2020/09/26 03:55:29;;;;;;;1.06;1.00;;;;;;;20.22;65.33;98774.95;;;;-46
2020/09/26 03:58:30;;;;;;;1.18;1.03;;;;;;;20.21;65.31;98773.67;;;;-47
2020/09/26 04:01:30;;;;;;;1.00;1.00;;;;;;;20.22;65.30;98773.91;;;;-47
2020/09/26 04:04:30;;;;;;;0.96;0.96;;;;;;;20.21;65.25;98771.80;;;;-47
2020/09/26 04:07:29;;;;;;;1.05;1.04;;;;;;;20.21;65.30;98770.64;;;;-47
2020/09/26 04:10:29;;;;;;;0.95;0.95;;;;;;;20.21;65.30;98764.97;;;;-46
2020/09/26 04:13:30;;;;;;;1.10;1.00;;;;;;;20.21;65.31;98764.64;;;;-46
2020/09/26 04:16:29;;;;;;;0.95;0.95;;;;;;;20.20;65.29;98759.37;;;;-47
2020/09/26 04:19:29;;;;;;;1.11;1.04;;;;;;;20.20;65.29;98756.53;;;;-47
2020/09/26 04:22:29;;;;;;;0.94;0.90;;;;;;;20.20;65.26;98762.22;;;;-47
2020/09/26 04:25:30;;;;;;;0.91;0.90;;;;;;;20.19;65.25;98755.98;;;;-47
2020/09/26 04:28:29;;;;;;;1.05;1.02;;;;;;;20.19;65.25;98753.72;;;;-47
2020/09/26 04:31:30;;;;;;;1.05;1.00;;;;;;;20.19;65.30;98753.55;;;;-47
2020/09/26 04:34:29;;;;;;;0.95;0.95;;;;;;;20.19;65.30;98754.52;;;;-46
2020/09/26 04:37:29;;;;;;;0.96;0.96;;;;;;;20.19;65.29;98753.38;;;;-46
2020/09/26 04:40:29;;;;;;;1.13;1.01;;;;;;;20.18;65.28;98751.61;;;;-47
2020/09/26 04:43:29;;;;;;;0.85;0.85;;;;;;;20.18;65.31;98749.75;;;;-47
2020/09/26 04:46:30;;;;;;;0.90;0.90;;;;;;;20.19;65.25;98749.87;;;;-47
2020/09/26 04:49:30;;;;;;;1.01;0.97;;;;;;;20.17;65.24;98747.16;;;;-46
2020/09/26 04:52:29;;;;;;;0.96;0.96;;;;;;;20.18;65.28;98748.54;;;;-49
2020/09/26 04:55:30;;;;;;;0.91;0.91;;;;;;;20.17;65.26;98756.36;;;;-47
2020/09/26 04:58:29;;;;;;;5.69;1.46;;;;;;;20.03;56.73;98756.05;;;;-50
2020/09/26 05:01:29;;;;;;;4.19;1.49;;;;;;;19.83;54.36;98762.42;;;;-51
2020/09/26 05:04:30;;;;;;;2.32;1.43;;;;;;;19.55;53.22;98763.50;;;;-53
2020/09/26 05:07:29;;;;;;;2.72;1.57;;;;;;;19.25;53.21;98765.95;;;;-52
2020/09/26 05:10:29;;;;;;;2.76;1.69;;;;;;;19.13;53.40;98769.62;;;;-48
2020/09/26 05:13:29;;;;;;;4.17;1.35;;;;;;;19.21;55.71;98774.09;;;;-49
2020/09/26 05:16:30;;;;;;;2.66;1.45;;;;;;;19.32;57.28;98773.70;;;;-48
2020/09/26 05:19:30;;;;;;;2.60;1.41;;;;;;;19.42;58.19;98769.69;;;;-52
2020/09/26 05:22:29;;;;;;;2.75;1.58;;;;;;;19.50;58.32;98769.19;;;;-48
2020/09/26 05:25:30;;;;;;;1.75;1.31;;;;;;;19.58;58.59;98767.23;;;;-48
2020/09/26 05:28:29;;;;;;;2.73;1.33;;;;;;;19.65;58.93;98758.89;;;;-51
2020/09/26 05:31:29;;;;;;;2.82;1.31;;;;;;;19.69;59.37;98761.08;;;;-46
2020/09/26 05:34:29;;;;;;;2.60;1.30;;;;;;;19.74;59.40;98758.50;;;;-51
2020/09/26 05:37:30;;;;;;;2.38;1.36;;;;;;;19.77;59.64;98757.28;;;;-51
2020/09/26 05:40:29;;;;;;;4.19;1.29;;;;;;;19.78;59.85;98756.78;;;;-49
2020/09/26 05:43:29;;;;;;;1.85;1.33;;;;;;;19.79;60.08;98751.77;;;;-48
2020/09/26 05:46:29;;;;;;;3.49;1.35;;;;;;;19.79;60.21;98754.84;;;;-49
2020/09/26 05:49:29;;;;;;;5.93;1.41;;;;;;;19.80;60.29;98752.75;;;;-49
2020/09/26 05:52:29;;;;;;;1.24;1.13;;;;;;;19.79;60.51;98745.91;;;;-49
2020/09/26 05:55:29;;;;;;;4.85;1.36;;;;;;;19.79;60.63;98743.14;;;;-50
2020/09/26 05:58:30;;;;;;;2.21;1.36;;;;;;;19.79;60.84;98749.16;;;;-48
2020/09/26 06:01:30;;;;;;;2.23;1.39;;;;;;;19.79;60.87;98753.88;;;;-48
2020/09/26 06:04:29;;;;;;;2.72;1.22;;;;;;;19.79;61.03;98747.53;;;;-48
2020/09/26 06:07:30;;;;;;;2.71;1.23;;;;;;;19.80;61.18;98746.16;;;;-49
2020/09/26 06:10:29;;;;;;;1.57;1.29;;;;;;;19.80;61.27;98741.28;;;;-48
2020/09/26 06:13:30;;;;;;;2.09;1.27;;;;;;;19.81;61.37;98738.17;;;;-48
2020/09/26 06:16:29;;;;;;;2.38;1.37;;;;;;;19.81;61.55;98735.08;;;;-49
2020/09/26 06:19:29;;;;;;;1.29;1.11;;;;;;;19.81;61.57;98733.55;;;;-49
2020/09/26 06:22:29;;;;;;;2.07;1.19;;;;;;;19.81;61.63;98730.69;;;;-49
2020/09/26 06:25:30;;;;;;;2.00;1.20;;;;;;;19.81;61.71;98726.47;;;;-48
2020/09/26 06:28:29;;;;;;;2.43;1.22;;;;;;;19.81;61.78;98729.47;;;;-48
2020/09/26 06:31:30;;;;;;;1.45;1.20;;;;;;;19.81;61.86;98721.57;;;;-48
2020/09/26 06:34:29;;;;;;;1.83;1.20;;;;;;;19.81;61.94;98725.16;;;;-49
2020/09/26 06:37:29;;;;;;;2.12;1.34;;;;;;;19.81;61.96;98725.72;;;;-49
2020/09/26 06:40:29;;;;;;;1.27;1.17;;;;;;;19.81;62.01;98722.96;;;;-49
2020/09/26 06:43:29;;;;;;;2.05;1.27;;;;;;;19.81;62.09;98715.58;;;;-49
2020/09/26 06:46:29;;;;;;;1.17;1.10;;;;;;;19.81;62.18;98704.43;;;;-48
2020/09/26 06:49:29;;;;;;;1.54;1.29;;;;;;;19.80;62.22;98703.08;;;;-49
2020/09/26 06:52:30;;;;;;;1.29;1.19;;;;;;;19.81;62.25;98699.06;;;;-49
2020/09/26 06:55:29;;;;;;;1.23;1.13;;;;;;;19.82;62.29;98693.36;;;;-49
2020/09/26 06:58:29;;;;;;;1.63;1.23;;;;;;;19.82;62.34;98690.75;;;;-49
2020/09/26 07:01:29;;;;;;;1.60;1.19;;;;;;;19.81;62.39;98688.57;;;;-49
2020/09/26 07:04:29;;;;;;;1.12;1.05;;;;;;;19.82;62.38;98693.30;;;;-49
2020/09/26 07:07:30;;;;;;;1.72;1.23;;;;;;;19.82;62.44;98691.89;;;;-49
2020/09/26 07:10:29;;;;;;;1.39;1.21;;;;;;;19.82;62.46;98685.55;;;;-49
2020/09/26 07:13:29;;;;;;;1.41;1.10;;;;;;;19.82;62.54;98685.17;;;;-49
2020/09/26 07:16:30;;;;;;;1.29;1.18;;;;;;;19.82;62.53;98679.78;;;;-50
2020/09/26 07:19:29;;;;;;;1.20;1.10;;;;;;;19.82;62.61;98673.86;;;;-49
2020/09/26 07:22:29;;;;;;;1.60;1.05;;;;;;;19.82;62.61;98673.77;;;;-49
2020/09/26 07:25:30;;;;;;;1.14;1.09;;;;;;;19.83;62.63;98673.52;;;;-49
2020/09/26 07:28:30;;;;;;;1.97;1.20;;;;;;;19.83;62.70;98674.00;;;;-49
2020/09/26 07:31:29;;;;;;;1.20;1.10;;;;;;;19.82;62.70;98666.87;;;;-49
2020/09/26 07:34:30;;;;;;;1.90;1.21;;;;;;;19.83;62.72;98665.39;;;;-49
2020/09/26 07:37:29;;;;;;;2.63;1.11;;;;;;;19.83;62.70;98667.39;;;;-49
2020/09/26 07:40:30;;;;;;;4.13;1.25;;;;;;;19.83;62.80;98658.28;;;;-50
2020/09/26 07:43:29;;;;;;;4.38;1.40;;;;;;;19.86;62.86;98664.16;;;;-46
2020/09/26 07:46:29;;;;;;;3.81;1.31;;;;;;;19.86;62.91;98659.87;;;;-46
2020/09/26 07:49:30;;;;;;;3.56;1.33;;;;;;;19.86;63.04;98656.86;;;;-49
2020/09/26 07:52:29;;;;;;;4.53;1.37;;;;;;;19.88;63.16;98655.50;;;;-53
2020/09/26 07:55:30;;;;;;;2.73;1.20;;;;;;;19.89;63.28;98661.02;;;;-47
2020/09/26 07:58:30;;;;;;;4.46;1.44;;;;;;;19.89;63.34;98654.49;;;;-46
2020/09/26 08:01:29;;;;;;;2.40;1.33;;;;;;;19.91;63.42;98656.99;;;;-46
2020/09/26 08:04:29;;;;;;;4.08;1.25;;;;;;;19.92;63.50;98656.70;;;;-47
2020/09/26 08:07:30;;;;;;;4.15;1.51;;;;;;;19.92;63.51;98653.68;;;;-48
2020/09/26 08:10:29;;;;;;;5.23;1.52;;;;;;;19.95;63.59;98658.02;;;;-48
2020/09/26 08:13:30;;;;;;;2.36;1.28;;;;;;;19.95;63.58;98661.75;;;;-49
2020/09/26 08:16:30;;;;;;;2.93;1.36;;;;;;;19.97;63.64;98664.21;;;;-59
2020/09/26 08:19:29;;;;;;;1.51;1.26;;;;;;;19.99;63.70;98667.53;;;;-49
2020/09/26 08:22:30;;;;;;;2.12;1.37;;;;;;;20.00;63.73;98663.98;;;;-60
2020/09/26 08:25:34;;;;;;;1.55;1.30;;;;;;;20.01;63.73;98669.57;;;;-49
2020/09/26 08:28:29;;;;;;;2.71;1.30;;;;;;;20.03;63.76;98668.87;;;;-50
2020/09/26 08:31:29;;;;;;;2.33;1.33;;;;;;;20.04;63.78;98668.67;;;;-52
2020/09/26 08:34:29;;;;;;;1.77;1.10;;;;;;;20.07;63.82;98677.34;;;;-53
2020/09/26 08:37:29;;;;;;;2.49;1.31;;;;;;;20.08;63.83;98668.33;;;;-48
2020/09/26 08:40:29;;;;;;;3.31;1.33;;;;;;;20.09;63.75;98671.92;;;;-51
2020/09/26 08:43:29;;;;;;;2.03;1.19;;;;;;;20.12;63.79;98670.59;;;;-52
2020/09/26 08:46:29;;;;;;;2.17;1.15;;;;;;;20.12;63.92;98668.81;;;;-50
2020/09/26 08:49:29;;;;;;;1.54;1.20;;;;;;;20.13;63.94;98662.61;;;;-51
2020/09/26 08:52:30;;;;;;;5.67;1.44;;;;;;;20.15;63.25;98658.89;;;;-49
2020/09/26 08:55:29;;;;;;;5.92;1.42;;;;;;;20.16;63.62;98660.58;;;;-45
2020/09/26 08:58:29;;;;;;;2.46;1.33;;;;;;;20.17;63.45;98660.15;;;;-50
2020/09/26 09:01:29;;;;;;;4.08;1.33;;;;;;;20.18;63.35;98662.41;;;;-52
2020/09/26 09:04:29;;;;;;;2.88;1.29;;;;;;;20.17;63.23;98662.42;;;;-52
2020/09/26 09:07:29;;;;;;;5.69;1.43;;;;;;;20.18;63.16;98670.02;;;;-55
2020/09/26 09:10:30;;;;;;;5.61;1.35;;;;;;;20.19;63.14;98668.87;;;;-50
2020/09/26 09:13:29;;;;;;;4.18;1.30;;;;;;;20.18;63.33;98665.56;;;;-48
2020/09/26 09:16:30;;;;;;;3.29;1.23;;;;;;;20.18;63.35;98669.63;;;;-47
2020/09/26 09:19:29;;;;;;;2.06;1.21;;;;;;;20.19;63.35;98672.71;;;;-45
2020/09/26 09:22:29;;;;;;;2.91;1.31;;;;;;;20.20;63.36;98676.90;;;;-50
2020/09/26 09:25:29;;;;;;;11.57;1.90;;;;;;;20.23;63.34;98679.03;;;;-49
2020/09/26 09:28:30;;;;;;;4.45;1.65;;;;;;;20.24;63.32;98681.63;;;;-49
2020/09/26 09:31:29;;;;;;;5.20;1.49;;;;;;;20.23;63.14;98682.36;;;;-47
2020/09/26 09:34:29;;;;;;;4.35;1.34;;;;;;;20.22;63.13;98685.56;;;;-47
2020/09/26 09:37:29;;;;;;;5.18;1.47;;;;;;;20.20;63.13;98692.86;;;;-48
2020/09/26 09:40:29;;;;;;;6.39;1.51;;;;;;;20.17;63.19;98700.48;;;;-47
2020/09/26 09:43:30;;;;;;;3.09;1.29;;;;;;;20.17;63.23;98715.69;;;;-47
2020/09/26 09:46:29;;;;;;;1.81;1.26;;;;;;;20.16;63.25;98723.68;;;;-47
2020/09/26 09:49:29;;;;;;;6.32;1.60;;;;;;;20.15;63.24;98726.33;;;;-47
2020/09/26 09:52:29;;;;;;;2.68;1.31;;;;;;;20.15;63.27;98726.33;;;;-47
2020/09/26 09:55:29;;;;;;;3.48;1.41;;;;;;;20.15;63.32;98731.36;;;;-47
2020/09/26 09:58:29;;;;;;;3.57;1.30;;;;;;;20.14;63.26;98736.34;;;;-56
2020/09/26 10:01:29;;;;;;;1.77;1.25;;;;;;;20.14;63.28;98740.66;;;;-48
2020/09/26 10:04:29;;;;;;;2.95;1.27;;;;;;;20.13;63.38;98740.42;;;;-46
2020/09/26 10:07:29;;;;;;;2.03;1.29;;;;;;;20.13;63.31;98737.02;;;;-48
2020/09/26 10:10:29;;;;;;;3.37;1.33;;;;;;;20.13;63.33;98742.53;;;;-48
2020/09/26 10:13:29;;;;;;;3.08;1.19;;;;;;;20.12;63.28;98745.80;;;;-48
2020/09/26 10:16:29;;;;;;;2.17;1.19;;;;;;;20.12;63.28;98746.30;;;;-48
2020/09/26 10:19:30;;;;;;;1.73;1.24;;;;;;;20.12;63.25;98746.13;;;;-57
2020/09/26 10:22:30;;;;;;;2.43;1.25;;;;;;;20.13;63.31;98749.30;;;;-47
2020/09/26 10:25:30;;;;;;;1.97;1.20;;;;;;;20.12;63.27;98747.52;;;;-47
2020/09/26 10:28:29;;;;;;;2.72;1.24;;;;;;;20.12;63.32;98752.49;;;;-56
2020/09/26 10:31:29;;;;;;;1.78;1.11;;;;;;;20.12;63.27;98750.64;;;;-57
2020/09/26 10:34:29;;;;;;;2.29;1.29;;;;;;;20.11;63.30;98742.84;;;;-57
2020/09/26 10:37:30;;;;;;;3.09;1.17;;;;;;;20.11;63.31;98742.19;;;;-57
2020/09/26 10:40:29;;;;;;;3.81;1.21;;;;;;;20.10;63.33;98740.66;;;;-56
2020/09/26 10:43:30;;;;;;;1.71;1.19;;;;;;;20.10;63.31;98738.38;;;;-57
2020/09/26 10:46:29;;;;;;;2.87;1.13;;;;;;;20.09;63.35;98740.04;;;;-57
2020/09/26 10:49:29;;;;;;;2.25;1.28;;;;;;;20.10;63.34;98741.23;;;;-58
2020/09/26 10:52:29;;;;;;;1.99;1.18;;;;;;;20.09;63.32;98732.00;;;;-58
2020/09/26 10:55:29;;;;;;;2.18;1.17;;;;;;;20.10;63.35;98735.47;;;;-57
2020/09/26 10:58:29;;;;;;;4.71;1.27;;;;;;;20.12;63.36;98724.66;;;;-52
2020/09/26 11:01:29;;;;;;;3.13;1.20;;;;;;;20.13;63.41;98729.05;;;;-54
2020/09/26 11:04:29;;;;;;;2.73;1.24;;;;;;;20.14;63.46;98725.61;;;;-61
2020/09/26 11:07:29;;;;;;;5.46;1.29;;;;;;;20.16;63.51;98733.05;;;;-60
2020/09/26 11:10:30;;;;;;;1.62;1.21;;;;;;;20.16;63.58;98729.14;;;;-54
2020/09/26 11:13:29;;;;;;;3.13;1.20;;;;;;;20.17;63.63;98729.36;;;;-54
2020/09/26 11:16:29;;;;;;;2.02;1.21;;;;;;;20.19;63.59;98722.55;;;;-57
2020/09/26 11:19:29;;;;;;;1.40;1.10;;;;;;;20.21;63.70;98723.41;;;;-57
2020/09/26 11:22:30;;;;;;;5.07;1.57;;;;;;;20.24;63.61;98731.29;;;;-59
2020/09/26 11:25:30;;;;;;;2.97;1.20;;;;;;;20.25;63.70;98731.92;;;;-55
2020/09/26 11:28:30;;;;;;;4.61;1.22;;;;;;;20.25;63.68;98727.63;;;;-53
2020/09/26 11:31:30;;;;;;;3.08;1.15;;;;;;;20.25;63.63;98733.45;;;;-52
2020/09/26 11:34:30;;;;;;;1.84;1.10;;;;;;;20.26;63.61;98741.58;;;;-53
2020/09/26 11:37:30;;;;;;;2.37;1.12;;;;;;;20.25;63.61;98740.87;;;;-53
2020/09/26 11:40:29;;;;;;;2.59;1.14;;;;;;;20.26;63.57;98740.70;;;;-57
2020/09/26 11:43:30;;;;;;;3.19;1.14;;;;;;;20.27;63.43;98744.56;;;;-51
2020/09/26 11:46:29;;;;;;;1.87;1.17;;;;;;;20.28;63.42;98747.30;;;;-57
2020/09/26 11:49:29;;;;;;;4.89;1.28;;;;;;;20.28;63.45;98746.99;;;;-58
2020/09/26 11:52:29;;;;;;;8.41;1.46;;;;;;;20.32;63.40;98746.73;;;;-56
2020/09/26 11:55:29;;;;;;;3.27;1.26;;;;;;;20.32;63.37;98745.36;;;;-59
2020/09/26 11:58:29;;;;;;;3.01;1.34;;;;;;;20.31;63.32;98736.91;;;;-53
2020/09/26 12:01:30;;;;;;;5.16;1.31;;;;;;;20.32;63.44;98734.85;;;;-55
2020/09/26 12:04:30;;;;;;;3.07;1.34;;;;;;;20.33;63.42;98729.60;;;;-55
2020/09/26 12:07:29;;;;;;;4.50;1.33;;;;;;;20.32;63.44;98734.44;;;;-56
2020/09/26 12:10:30;;;;;;;6.77;1.64;;;;;;;20.33;63.53;98727.98;;;;-57
2020/09/26 12:13:29;;;;;;;3.89;1.36;;;;;;;20.34;63.52;98726.03;;;;-53
2020/09/26 12:16:30;;;;;;;4.05;1.30;;;;;;;20.33;63.54;98720.98;;;;-59
2020/09/26 12:19:29;;;;;;;5.28;1.33;;;;;;;20.34;63.57;98720.83;;;;-51
2020/09/26 12:22:30;;;;;;;3.97;1.28;;;;;;;20.34;63.61;98719.60;;;;-49
2020/09/26 12:25:30;;;;;;;2.60;1.14;;;;;;;20.34;63.65;98723.32;;;;-48
2020/09/26 12:28:29;;;;;;;2.06;1.31;;;;;;;20.36;63.62;98724.34;;;;-51
2020/09/26 12:31:29;;;;;;;3.42;1.39;;;;;;;20.38;63.64;98721.02;;;;-51
2020/09/26 12:34:29;;;;;;;1.74;1.19;;;;;;;20.38;63.65;98720.13;;;;-51
2020/09/26 12:37:30;;;;;;;4.13;1.40;;;;;;;20.38;63.70;98713.30;;;;-50
2020/09/26 12:40:30;;;;;;;3.75;1.21;;;;;;;20.39;63.77;98711.32;;;;-59
2020/09/26 12:43:29;;;;;;;4.58;1.32;;;;;;;20.40;63.76;98701.70;;;;-50
2020/09/26 12:46:29;;;;;;;2.45;1.27;;;;;;;20.39;63.72;98695.19;;;;-50
2020/09/26 12:49:29;;;;;;;2.53;1.25;;;;;;;20.40;63.70;98689.91;;;;-52
2020/09/26 12:52:29;;;;;;;3.25;1.21;;;;;;;20.40;63.78;98683.16;;;;-51
2020/09/26 12:55:30;;;;;;;2.21;1.30;;;;;;;20.42;63.72;98680.33;;;;-51
2020/09/26 12:58:30;;;;;;;3.89;1.27;;;;;;;20.40;63.79;98682.34;;;;-47
2020/09/26 13:01:30;;;;;;;2.53;1.34;;;;;;;20.40;63.79;98685.60;;;;-47
2020/09/26 13:04:30;;;;;;;1.65;1.23;;;;;;;20.39;63.79;98683.64;;;;-50
2020/09/26 13:07:29;;;;;;;2.35;1.20;;;;;;;20.40;63.84;98691.05;;;;-50
2020/09/26 13:10:29;;;;;;;2.37;1.17;;;;;;;20.41;63.84;98693.14;;;;-51
2020/09/26 13:13:29;;;;;;;1.98;1.15;;;;;;;20.41;63.91;98691.33;;;;-49
2020/09/26 13:16:29;;;;;;;2.77;1.13;;;;;;;20.41;63.89;98696.95;;;;-51
2020/09/26 13:19:29;;;;;;;3.09;1.10;;;;;;;20.42;63.94;98698.15;;;;-48
2020/09/26 13:22:30;;;;;;;2.33;1.07;;;;;;;20.42;63.97;98699.94;;;;-46
2020/09/26 13:25:29;;;;;;;1.63;1.10;;;;;;;20.43;64.02;98693.66;;;;-48
2020/09/26 13:28:29;;;;;;;1.87;1.07;;;;;;;20.43;63.93;98695.69;;;;-50
2020/09/26 13:31:30;;;;;;;1.47;1.20;;;;;;;20.44;63.90;98697.61;;;;-52
2020/09/26 13:34:29;;;;;;;1.66;1.11;;;;;;;20.45;63.86;98695.23;;;;-49
2020/09/26 13:37:29;;;;;;;2.72;1.19;;;;;;;20.44;63.93;98695.80;;;;-49
2020/09/26 13:40:29;;;;;;;2.40;1.12;;;;;;;20.43;63.86;98703.09;;;;-48
2020/09/26 13:43:29;;;;;;;3.13;1.13;;;;;;;20.41;63.88;98696.14;;;;-49
2020/09/26 13:46:29;;;;;;;2.63;1.18;;;;;;;20.40;63.85;98700.97;;;;-48
2020/09/26 13:49:29;;;;;;;3.46;1.21;;;;;;;20.38;63.85;98697.60;;;;-48
2020/09/26 13:52:29;;;;;;;2.32;1.10;;;;;;;20.37;63.86;98700.73;;;;-48
2020/09/26 13:55:29;;;;;;;1.36;1.05;;;;;;;20.36;63.86;98703.52;;;;-49
2020/09/26 13:58:29;;;;;;;3.11;1.17;;;;;;;20.35;63.87;98696.11;;;;-57
2020/09/26 14:01:29;;;;;;;1.63;1.14;;;;;;;20.35;63.82;98693.95;;;;-57
2020/09/26 14:04:29;;;;;;;2.62;1.12;;;;;;;20.34;63.81;98695.50;;;;-57
2020/09/26 14:07:30;;;;;;;2.22;1.11;;;;;;;20.33;63.81;98693.48;;;;-57
2020/09/26 14:10:29;;;;;;;1.57;1.13;;;;;;;20.33;63.78;98690.42;;;;-57
2020/09/26 14:13:29;;;;;;;1.79;1.16;;;;;;;20.32;63.86;98688.34;;;;-57
2020/09/26 14:16:29;;;;;;;1.67;1.19;;;;;;;20.30;63.86;98682.09;;;;-58
2020/09/26 14:19:30;;;;;;;1.81;1.10;;;;;;;20.32;63.83;98685.23;;;;-48
2020/09/26 14:22:30;;;;;;;1.85;1.07;;;;;;;20.33;63.81;98685.86;;;;-57
2020/09/26 14:25:29;;;;;;;2.21;1.19;;;;;;;20.33;63.81;98682.13;;;;-50
2020/09/26 14:28:30;;;;;;;1.47;1.20;;;;;;;20.33;63.82;98689.11;;;;-52
2020/09/26 14:31:29;;;;;;;2.49;1.22;;;;;;;20.34;63.80;98686.83;;;;-53
2020/09/26 14:34:29;;;;;;;3.25;1.36;;;;;;;20.35;63.80;98688.32;;;;-52
2020/09/26 14:37:29;;;;;;;2.37;0.90;;;;;;;20.36;63.71;98687.56;;;;-52
2020/09/26 14:40:30;;;;;;;3.48;1.17;;;;;;;20.35;63.75;98685.37;;;;-53
2020/09/26 14:43:29;;;;;;;1.44;1.20;;;;;;;20.36;63.74;98683.98;;;;-54
2020/09/26 14:46:29;;;;;;;2.54;1.10;;;;;;;20.35;63.78;98687.34;;;;-53
2020/09/26 14:49:29;;;;;;;3.93;1.17;;;;;;;20.36;63.69;98682.11;;;;-55
2020/09/26 14:52:30;;;;;;;5.69;1.21;;;;;;;20.36;63.64;98684.96;;;;-55
2020/09/26 14:55:29;;;;;;;2.37;1.43;;;;;;;20.36;63.59;98686.03;;;;-50
2020/09/26 14:58:30;;;;;;;2.49;1.29;;;;;;;20.35;63.57;98686.11;;;;-57
2020/09/26 15:01:30;;;;;;;4.92;1.29;;;;;;;20.36;63.59;98686.20;;;;-52
2020/09/26 15:04:29;;;;;;;2.03;1.30;;;;;;;20.36;63.59;98685.55;;;;-48
2020/09/26 15:07:29;;;;;;;2.37;1.27;;;;;;;20.36;63.59;98683.34;;;;-50
2020/09/26 15:10:29;;;;;;;4.53;1.28;;;;;;;20.37;63.63;98684.62;;;;-57
2020/09/26 15:13:29;;;;;;;2.67;1.26;;;;;;;20.36;63.55;98686.17;;;;-50
2020/09/26 15:16:30;;;;;;;3.63;1.45;;;;;;;20.37;63.63;98689.98;;;;-49
2020/09/26 15:19:30;;;;;;;4.27;1.30;;;;;;;20.36;63.62;98687.47;;;;-54
2020/09/26 15:22:29;;;;;;;6.39;1.27;;;;;;;20.37;63.63;98691.94;;;;-54
2020/09/26 15:25:29;;;;;;;2.30;1.17;;;;;;;20.36;63.65;98688.80;;;;-55
2020/09/26 15:28:29;;;;;;;3.27;1.24;;;;;;;20.37;63.58;98690.55;;;;-56
2020/09/26 15:31:29;;;;;;;1.68;1.20;;;;;;;20.37;63.58;98689.31;;;;-52
2020/09/26 15:34:29;;;;;;;4.09;1.30;;;;;;;20.37;63.59;98688.75;;;;-51
2020/09/26 15:37:35;;;;;;;3.13;1.35;;;;;;;20.39;63.64;98689.42;;;;-53
2020/09/26 15:40:29;;;;;;;6.49;1.19;;;;;;;20.40;63.56;98692.02;;;;-52
2020/09/26 15:43:29;;;;;;;1.71;1.26;;;;;;;20.40;63.55;98693.41;;;;-54
2020/09/26 15:46:29;;;;;;;3.61;1.30;;;;;;;20.40;63.56;98694.13;;;;-55
2020/09/26 15:49:29;;;;;;;3.67;1.47;;;;;;;20.40;63.62;98697.39;;;;-51
2020/09/26 15:52:29;;;;;;;1.84;1.44;;;;;;;20.40;63.54;98695.27;;;;-55
2020/09/26 15:55:29;;;;;;;1.65;1.31;;;;;;;20.41;63.60;98699.23;;;;-58
2020/09/26 15:58:29;;;;;;;2.72;1.13;;;;;;;20.40;63.61;98699.11;;;;-57
2020/09/26 16:01:29;;;;;;;2.17;1.34;;;;;;;20.41;63.51;98703.31;;;;-56
2020/09/26 16:04:29;;;;;;;4.10;1.55;;;;;;;20.41;63.39;98707.85;;;;-50
2020/09/26 16:07:30;;;;;;;2.59;1.21;;;;;;;20.41;63.19;98708.41;;;;-53
2020/09/26 16:10:29;;;;;;;2.63;1.30;;;;;;;20.41;63.30;98707.45;;;;-54
2020/09/26 16:13:30;;;;;;;3.01;1.39;;;;;;;20.42;63.16;98710.02;;;;-48
2020/09/26 16:16:29;;;;;;;3.22;1.37;;;;;;;20.42;63.19;98716.38;;;;-48
2020/09/26 16:19:29;;;;;;;3.21;1.43;;;;;;;20.42;63.12;98719.23;;;;-51
2020/09/26 16:22:30;;;;;;;3.07;1.37;;;;;;;20.42;63.13;98721.51;;;;-49
2020/09/26 16:25:29;;;;;;;4.30;1.59;;;;;;;20.43;63.17;98725.72;;;;-50
2020/09/26 16:28:30;;;;;;;3.20;1.40;;;;;;;20.43;63.12;98730.02;;;;-57
2020/09/26 16:31:29;;;;;;;3.10;1.40;;;;;;;20.42;63.15;98726.62;;;;-50
2020/09/26 16:34:29;;;;;;;2.42;1.35;;;;;;;20.42;63.13;98726.78;;;;-51
2020/09/26 16:37:29;;;;;;;3.17;1.51;;;;;;;20.44;63.17;98728.77;;;;-50
2020/09/26 16:40:29;;;;;;;3.50;1.53;;;;;;;20.43;63.17;98731.72;;;;-47
2020/09/26 16:43:30;;;;;;;1.65;1.25;;;;;;;20.44;63.13;98732.52;;;;-52
2020/09/26 16:46:31;;;;;;;2.26;1.27;;;;;;;20.44;63.15;98736.58;;;;-52
2020/09/26 16:49:29;;;;;;;1.77;1.33;;;;;;;20.45;63.01;98734.59;;;;-53
2020/09/26 16:52:29;;;;;;;3.82;1.52;;;;;;;20.45;63.04;98736.89;;;;-53
2020/09/26 16:55:29;;;;;;;3.75;1.66;;;;;;;20.43;63.09;98734.34;;;;-53